createdAt,value
2019-02-18T00:01:49.327Z,22.80
2019-02-18T00:04:16.475Z,22.80
2019-02-18T00:06:43.211Z,22.80
2019-02-18T00:09:09.847Z,22.70
2019-02-18T00:11:36.997Z,22.70
2019-02-18T00:14:03.752Z,22.80
2019-02-18T00:16:30.442Z,22.80
2019-02-18T00:18:57.522Z,22.80
2019-02-18T00:21:24.262Z,22.60
2019-02-18T00:23:50.982Z,22.70
2019-02-18T00:26:18.058Z,22.80
2019-02-18T00:28:45.197Z,22.80
2019-02-18T00:31:11.937Z,23.00
2019-02-18T00:33:38.683Z,22.80
2019-02-18T00:36:05.533Z,22.90
2019-02-18T00:38:32.256Z,22.90
2019-02-18T00:40:58.892Z,22.90
2019-02-18T00:43:25.661Z,22.80
2019-02-18T00:45:52.472Z,22.90
2019-02-18T00:48:19.315Z,22.80
2019-02-18T00:50:46.157Z,23.30
2019-02-18T00:53:12.905Z,23.00
2019-02-18T00:55:39.635Z,22.80
2019-02-18T00:58:06.839Z,22.80
2019-02-18T01:00:33.738Z,22.90
2019-02-18T01:03:00.580Z,22.90
2019-02-18T01:05:27.322Z,22.90
2019-02-18T01:07:54.049Z,22.90
2019-02-18T01:10:20.796Z,22.90
2019-02-18T01:12:47.628Z,23.00
2019-02-18T01:15:14.439Z,22.90
2019-02-18T01:17:41.171Z,23.00
2019-02-18T01:20:07.951Z,23.00
2019-02-18T01:22:34.696Z,23.10
2019-02-18T01:25:01.535Z,23.10
2019-02-18T01:27:28.282Z,23.00
2019-02-18T01:29:55.011Z,23.00
2019-02-18T01:32:21.750Z,23.00
2019-02-18T01:34:48.602Z,23.30
2019-02-18T01:37:15.442Z,23.00
2019-02-18T01:39:42.170Z,23.00
2019-02-18T01:42:08.937Z,22.90
2019-02-18T01:44:35.649Z,23.20
2019-02-18T01:47:02.292Z,23.20
2019-02-18T01:49:29.129Z,23.20
2019-02-18T01:51:55.869Z,23.20
2019-02-18T01:54:22.571Z,23.20
2019-02-18T01:56:49.345Z,23.20
2019-02-18T01:59:16.086Z,23.10
2019-02-18T02:01:42.940Z,23.70
2019-02-18T02:04:09.780Z,23.10
2019-02-18T02:06:36.510Z,23.10
2019-02-18T02:09:03.248Z,23.10
2019-02-18T02:11:29.985Z,23.20
2019-02-18T02:13:56.729Z,23.10
2019-02-18T02:16:23.472Z,23.00
2019-02-18T02:18:50.213Z,23.10
2019-02-18T02:21:16.942Z,23.20
2019-02-18T02:23:43.581Z,23.20
2019-02-18T02:26:10.432Z,23.20
2019-02-18T02:28:37.159Z,23.20
2019-02-18T02:31:03.914Z,23.30
2019-02-18T02:33:30.756Z,23.20
2019-02-18T02:35:57.489Z,23.30
2019-02-18T02:38:24.327Z,23.20
2019-02-18T02:40:51.178Z,23.10
2019-02-18T02:43:17.904Z,23.10
2019-02-18T02:45:44.588Z,23.00
2019-02-18T02:48:11.286Z,23.20
2019-02-18T02:50:38.053Z,23.10
2019-02-18T02:53:04.907Z,23.10
2019-02-18T02:55:31.716Z,23.10
2019-02-18T02:57:58.557Z,23.10
2019-02-18T03:00:25.286Z,23.20
2019-02-18T03:02:52.053Z,23.20
2019-02-18T03:05:18.864Z,23.00
2019-02-18T03:07:45.619Z,23.10
2019-02-18T03:10:12.343Z,23.20
2019-02-18T03:12:39.092Z,23.30
2019-02-18T03:15:05.872Z,23.20
2019-02-18T03:17:32.671Z,23.20
2019-02-18T03:19:59.621Z,23.20
2019-02-18T03:22:26.369Z,23.30
2019-02-18T03:24:53.301Z,23.20
2019-02-18T03:27:20.141Z,23.40
2019-02-18T03:29:46.987Z,23.30
2019-02-18T03:32:13.743Z,23.30
2019-02-18T03:34:40.564Z,23.40
2019-02-18T03:37:07.514Z,23.30
2019-02-18T03:39:34.445Z,23.20
2019-02-18T03:42:01.148Z,23.20
2019-02-18T03:44:27.923Z,23.10
2019-02-18T03:46:54.663Z,23.00
2019-02-18T03:49:21.409Z,23.10
2019-02-18T03:51:48.552Z,23.10
2019-02-18T03:54:15.301Z,23.00
2019-02-18T03:56:42.192Z,23.00
2019-02-18T03:59:09.187Z,23.10
2019-02-18T04:01:35.883Z,23.10
2019-02-18T04:04:02.653Z,23.20
2019-02-18T04:06:29.290Z,23.30
2019-02-18T04:08:55.927Z,23.20
2019-02-18T04:11:22.677Z,23.20
2019-02-18T04:13:49.421Z,23.20
2019-02-18T04:16:16.335Z,23.30
2019-02-18T04:18:43.106Z,23.30
2019-02-18T04:21:09.831Z,23.20
2019-02-18T04:23:36.578Z,23.30
2019-02-18T04:26:03.317Z,23.20
2019-02-18T04:28:30.155Z,23.20
2019-02-18T04:30:56.901Z,23.20
2019-02-18T04:33:23.618Z,23.10
2019-02-18T04:35:50.387Z,23.00
2019-02-18T04:38:17.225Z,22.90
2019-02-18T04:40:44.051Z,23.00
2019-02-18T04:43:10.804Z,23.00
2019-02-18T04:45:37.502Z,23.10
2019-02-18T04:48:04.281Z,23.20
2019-02-18T04:50:31.018Z,23.20
2019-02-18T04:52:57.854Z,23.30
2019-02-18T04:55:24.601Z,23.10
2019-02-18T04:57:51.332Z,23.00
2019-02-18T05:00:18.078Z,23.10
2019-02-18T05:02:44.773Z,23.70
2019-02-18T05:05:11.663Z,23.10
2019-02-18T05:07:38.413Z,23.20
2019-02-18T05:10:05.128Z,23.20
2019-02-18T05:12:31.980Z,23.10
2019-02-18T05:14:58.679Z,23.10
2019-02-18T05:17:25.463Z,23.10
2019-02-18T05:19:52.353Z,23.20
2019-02-18T05:22:19.149Z,23.30
2019-02-18T05:24:45.902Z,23.20
2019-02-18T05:27:12.610Z,23.20
2019-02-18T05:29:39.565Z,23.20
2019-02-18T05:32:06.293Z,23.20
2019-02-18T05:34:33.056Z,23.10
2019-02-18T05:36:59.885Z,23.20
2019-02-18T05:39:26.623Z,23.30
2019-02-18T05:41:53.455Z,23.20
2019-02-18T05:44:20.206Z,23.20
2019-02-18T05:46:46.936Z,23.20
2019-02-18T05:49:13.882Z,23.20
2019-02-18T05:51:40.618Z,23.50
2019-02-18T05:54:07.509Z,23.20
2019-02-18T05:56:34.213Z,23.30
2019-02-18T05:59:01.054Z,22.90
2019-02-18T06:01:27.893Z,23.30
2019-02-18T06:03:54.594Z,23.30
2019-02-18T06:06:21.781Z,23.30
2019-02-18T06:08:48.622Z,23.20
2019-02-18T06:11:15.356Z,23.30
2019-02-18T06:13:42.238Z,23.30
2019-02-18T06:16:09.145Z,23.60
2019-02-18T06:18:35.979Z,23.40
2019-02-18T06:21:02.762Z,23.50
2019-02-18T06:23:29.562Z,23.40
2019-02-18T06:25:56.299Z,23.30
2019-02-18T06:28:23.036Z,23.30
2019-02-18T06:30:49.790Z,23.30
2019-02-18T06:33:16.618Z,23.30
2019-02-18T06:35:43.375Z,23.30
2019-02-18T06:38:10.099Z,23.20
2019-02-18T06:40:36.847Z,23.10
2019-02-18T06:43:03.679Z,23.00
2019-02-18T06:45:30.640Z,23.00
2019-02-18T06:47:57.474Z,23.00
2019-02-18T06:50:24.352Z,22.90
2019-02-18T06:52:51.261Z,22.70
2019-02-18T06:55:18.092Z,22.70
2019-02-18T06:57:44.837Z,22.40
2019-02-18T07:00:11.572Z,22.30
2019-02-18T07:02:38.307Z,22.00
2019-02-18T07:05:05.063Z,21.90
2019-02-18T07:07:31.892Z,21.70
2019-02-18T07:09:58.644Z,21.50
2019-02-18T07:12:25.374Z,21.40
2019-02-18T07:14:52.109Z,21.20
2019-02-18T07:17:18.848Z,21.10
2019-02-18T07:19:45.715Z,21.20
2019-02-18T07:22:12.440Z,21.20
2019-02-18T07:24:39.173Z,21.10
2019-02-18T07:27:05.916Z,21.10
2019-02-18T07:29:34.159Z,21.00
2019-02-18T07:32:01.011Z,21.00
2019-02-18T07:34:27.641Z,20.90
2019-02-18T07:36:54.399Z,20.80
2019-02-18T07:39:21.041Z,20.90
2019-02-18T07:41:47.774Z,21.10
2019-02-18T07:44:14.515Z,21.50
2019-02-18T07:46:41.266Z,21.10
2019-02-18T07:49:08.311Z,21.00
2019-02-18T07:51:35.021Z,21.00
2019-02-18T07:54:01.794Z,21.00
2019-02-18T07:56:28.634Z,21.40
2019-02-18T07:58:55.364Z,21.50
2019-02-18T08:01:22.100Z,21.70
2019-02-18T08:03:48.841Z,21.50
2019-02-18T08:06:15.699Z,21.40
2019-02-18T08:08:43.592Z,21.30
2019-02-18T08:11:10.903Z,21.30
2019-02-18T08:13:37.641Z,20.90
2019-02-18T08:16:04.487Z,21.10
2019-02-18T08:18:31.346Z,20.90
2019-02-18T08:20:58.173Z,20.60
2019-02-18T08:23:24.910Z,20.30
2019-02-18T08:25:51.648Z,19.90
2019-02-18T08:28:18.400Z,20.10
2019-02-18T08:30:45.122Z,20.10
2019-02-18T08:33:11.859Z,19.50
2019-02-18T08:35:38.614Z,19.80
2019-02-18T08:38:05.340Z,19.60
2019-02-18T08:40:32.088Z,19.40
2019-02-18T08:42:58.941Z,18.70
2019-02-18T08:45:25.778Z,18.60
2019-02-18T08:47:52.500Z,18.80
2019-02-18T08:50:19.350Z,18.10
2019-02-18T08:52:46.183Z,18.00
2019-02-18T08:55:13.288Z,17.70
2019-02-18T08:57:40.106Z,17.50
2019-02-18T09:00:06.858Z,17.30
2019-02-18T09:02:33.656Z,16.70
2019-02-18T09:05:00.734Z,16.10
2019-02-18T09:07:27.439Z,15.20
2019-02-18T09:09:54.190Z,14.30
2019-02-18T09:12:21.629Z,13.80
2019-02-18T09:14:48.382Z,13.50
2019-02-18T09:17:15.111Z,12.90
2019-02-18T09:19:41.866Z,12.30
2019-02-18T09:22:09.036Z,12.30
2019-02-18T09:24:35.749Z,12.10
2019-02-18T09:27:02.481Z,11.70
2019-02-18T09:29:29.228Z,12.00
2019-02-18T09:31:56.070Z,11.60
2019-02-18T09:34:22.965Z,11.60
2019-02-18T09:36:49.747Z,11.50
2019-02-18T09:39:16.485Z,11.30
2019-02-18T09:41:43.195Z,10.90
2019-02-18T09:44:09.868Z,10.70
2019-02-18T09:46:36.708Z,10.30
2019-02-18T09:49:03.548Z,9.70
2019-02-18T09:51:30.287Z,9.50
2019-02-18T09:53:57.024Z,8.90
2019-02-18T09:56:23.757Z,8.50
2019-02-18T09:58:50.603Z,8.20
2019-02-18T10:01:17.324Z,8.10
2019-02-18T10:03:44.092Z,8.00
2019-02-18T10:06:10.980Z,7.90
2019-02-18T10:08:37.769Z,7.90
2019-02-18T10:11:04.626Z,7.70
2019-02-18T10:13:31.342Z,7.50
2019-02-18T10:15:58.096Z,7.40
2019-02-18T10:18:24.933Z,7.50
2019-02-18T10:20:51.662Z,7.20
2019-02-18T10:23:18.719Z,7.10
2019-02-18T10:25:45.470Z,6.90
2019-02-18T10:28:12.177Z,6.80
2019-02-18T10:30:38.871Z,7.00
2019-02-18T10:33:05.568Z,6.70
2019-02-18T10:35:32.243Z,5.90
2019-02-18T10:37:58.939Z,5.50
2019-02-18T10:40:25.638Z,5.40
2019-02-18T10:42:52.361Z,5.90
2019-02-18T10:45:19.054Z,5.10
2019-02-18T10:47:45.807Z,4.80
2019-02-18T10:50:12.506Z,4.50
2019-02-18T10:52:39.233Z,4.50
2019-02-18T10:55:05.931Z,4.30
2019-02-18T10:57:33.162Z,4.20
2019-02-18T10:59:59.908Z,4.20
2019-02-18T11:02:26.604Z,3.50
2019-02-18T11:04:53.314Z,3.30
2019-02-18T11:07:20.044Z,3.50
2019-02-18T11:09:46.765Z,3.80
2019-02-18T11:12:13.506Z,3.50
2019-02-18T11:14:40.204Z,3.60
2019-02-18T11:17:06.912Z,3.90
2019-02-18T11:19:33.631Z,3.60
2019-02-18T11:22:00.324Z,3.50
2019-02-18T11:24:27.087Z,3.40
2019-02-18T11:26:54.010Z,4.00
2019-02-18T11:29:20.731Z,4.10
2019-02-18T11:31:47.423Z,4.20
2019-02-18T11:34:14.127Z,4.60
2019-02-18T11:36:40.885Z,4.60
2019-02-18T11:39:07.581Z,4.60
2019-02-18T11:41:34.303Z,4.90
2019-02-18T11:44:01.612Z,4.80
2019-02-18T11:46:28.379Z,5.00
2019-02-18T11:48:55.156Z,5.00
2019-02-18T11:51:21.856Z,4.80
2019-02-18T11:53:48.585Z,4.50
2019-02-18T11:56:15.326Z,4.60
2019-02-18T11:58:42.036Z,4.00
2019-02-18T12:01:09.099Z,4.20
2019-02-18T12:03:35.796Z,4.00
2019-02-18T12:06:02.526Z,4.20
2019-02-18T12:08:29.255Z,3.90
2019-02-18T12:10:55.975Z,3.70
2019-02-18T12:13:22.752Z,3.60
2019-02-18T12:15:49.477Z,4.00
2019-02-18T12:18:16.197Z,3.50
2019-02-18T12:20:43.355Z,3.70
2019-02-18T12:23:10.074Z,3.90
2019-02-18T12:25:36.976Z,3.60
2019-02-18T12:28:03.750Z,3.80
2019-02-18T12:30:32.547Z,3.50
2019-02-18T12:32:59.884Z,3.20
2019-02-18T12:35:31.003Z,3.90
2019-02-18T12:37:55.722Z,4.30
2019-02-18T12:40:22.565Z,4.00
2019-02-18T12:42:49.306Z,4.70
2019-02-18T12:45:16.036Z,4.40
2019-02-18T12:47:42.776Z,4.40
2019-02-18T12:50:09.674Z,4.40
2019-02-18T12:52:36.463Z,4.50
2019-02-18T12:55:03.414Z,5.20
2019-02-18T12:57:30.664Z,5.50
2019-02-18T12:59:58.671Z,5.40
2019-02-18T13:02:26.009Z,5.20
2019-02-18T13:04:52.900Z,5.60
2019-02-18T13:07:19.800Z,6.00
2019-02-18T13:09:46.631Z,6.30
2019-02-18T13:12:13.340Z,6.40
2019-02-18T13:14:40.182Z,6.80
2019-02-18T13:17:07.137Z,6.80
2019-02-18T13:19:33.871Z,6.60
2019-02-18T13:22:00.818Z,6.30
2019-02-18T13:24:27.651Z,5.80
2019-02-18T13:26:54.601Z,6.20
2019-02-18T13:29:21.344Z,5.60
2019-02-18T13:31:48.184Z,4.80
2019-02-18T13:34:14.921Z,5.10
2019-02-18T13:36:41.769Z,5.00
2019-02-18T13:39:08.607Z,4.20
2019-02-18T13:41:36.911Z,4.20
2019-02-18T13:44:03.918Z,4.10
2019-02-18T13:46:30.666Z,3.90
2019-02-18T13:48:57.516Z,3.90
2019-02-18T13:51:24.621Z,3.80
2019-02-18T13:53:51.498Z,3.60
2019-02-18T13:56:18.227Z,3.20
2019-02-18T13:58:45.289Z,3.10
2019-02-18T14:01:12.026Z,3.10
2019-02-18T14:03:38.861Z,3.20
2019-02-18T14:06:05.603Z,2.60
2019-02-18T14:08:32.342Z,2.40
2019-02-18T14:10:59.183Z,2.30
2019-02-18T14:13:25.921Z,2.30
2019-02-18T14:15:52.961Z,2.50
2019-02-18T14:18:20.322Z,2.20
2019-02-18T14:20:47.060Z,2.50
2019-02-18T14:23:15.844Z,2.50
2019-02-18T14:25:42.381Z,2.90
2019-02-18T14:28:09.328Z,2.90
2019-02-18T14:30:36.077Z,3.20
2019-02-18T14:33:02.829Z,2.90
2019-02-18T14:35:30.164Z,3.50
2019-02-18T14:37:56.902Z,3.60
2019-02-18T14:40:23.688Z,3.80
2019-02-18T14:42:50.472Z,3.80
2019-02-18T14:45:17.221Z,4.10
2019-02-18T14:47:43.966Z,4.30
2019-02-18T14:50:10.698Z,4.40
2019-02-18T14:52:37.532Z,4.40
2019-02-18T14:55:04.580Z,5.00
2019-02-18T14:57:31.276Z,5.20
2019-02-18T14:59:58.212Z,5.40
2019-02-18T15:02:25.012Z,5.70
2019-02-18T15:04:51.808Z,5.80
2019-02-18T15:07:18.591Z,6.20
2019-02-18T15:09:45.333Z,6.10
2019-02-18T15:12:12.060Z,6.50
2019-02-18T15:14:38.799Z,6.40
2019-02-18T15:17:05.645Z,6.70
2019-02-18T15:19:32.399Z,7.30
2019-02-18T15:21:59.124Z,7.50
2019-02-18T15:24:25.859Z,7.80
2019-02-18T15:26:52.606Z,8.00
2019-02-18T15:29:19.440Z,8.70
2019-02-18T15:31:46.494Z,8.50
2019-02-18T15:34:13.234Z,8.80
2019-02-18T15:36:39.967Z,9.10
2019-02-18T15:39:06.709Z,9.40
2019-02-18T15:41:33.545Z,9.60
2019-02-18T15:44:00.298Z,10.00
2019-02-18T15:46:27.023Z,10.30
2019-02-18T15:48:53.767Z,10.30
2019-02-18T15:51:20.922Z,10.70
2019-02-18T15:53:47.757Z,10.80
2019-02-18T15:56:14.505Z,10.90
2019-02-18T15:58:41.233Z,11.00
2019-02-18T16:01:08.087Z,11.30
2019-02-18T16:03:34.829Z,11.50
2019-02-18T16:06:01.656Z,11.60
2019-02-18T16:08:28.814Z,11.70
2019-02-18T16:10:55.573Z,11.90
2019-02-18T16:13:22.282Z,11.90
2019-02-18T16:15:49.019Z,12.30
2019-02-18T16:18:15.799Z,12.30
2019-02-18T16:20:42.616Z,12.40
2019-02-18T16:23:09.341Z,12.60
2019-02-18T16:25:36.071Z,12.80
2019-02-18T16:28:03.254Z,12.90
2019-02-18T16:30:30.080Z,13.20
2019-02-18T16:32:56.819Z,12.90
2019-02-18T16:35:23.555Z,13.40
2019-02-18T16:37:50.302Z,13.60
2019-02-18T16:40:17.134Z,13.50
2019-02-18T16:42:43.958Z,13.80
2019-02-18T16:45:10.806Z,14.00
2019-02-18T16:47:37.634Z,14.10
2019-02-18T16:50:04.476Z,14.10
2019-02-18T16:52:31.175Z,14.20
2019-02-18T16:54:58.060Z,14.40
2019-02-18T16:57:24.789Z,14.40
2019-02-18T16:59:51.527Z,14.60
2019-02-18T17:02:18.269Z,14.90
2019-02-18T17:04:45.418Z,15.10
2019-02-18T17:07:12.268Z,15.10
2019-02-18T17:09:39.013Z,15.40
2019-02-18T17:12:05.738Z,15.50
2019-02-18T17:14:32.591Z,15.80
2019-02-18T17:16:59.282Z,15.80
2019-02-18T17:19:26.068Z,15.70
2019-02-18T17:21:52.797Z,16.00
2019-02-18T17:24:19.849Z,16.20
2019-02-18T17:26:46.584Z,16.40
2019-02-18T17:29:13.534Z,16.40
2019-02-18T17:31:40.327Z,16.70
2019-02-18T17:34:07.106Z,16.70
2019-02-18T17:36:34.440Z,16.50
2019-02-18T17:39:01.759Z,16.70
2019-02-18T17:41:28.929Z,16.90
2019-02-18T17:43:55.810Z,16.90
2019-02-18T17:46:22.550Z,17.00
2019-02-18T17:48:49.292Z,17.10
2019-02-18T17:51:16.253Z,17.00
2019-02-18T17:53:43.347Z,17.30
2019-02-18T17:56:10.313Z,17.30
2019-02-18T17:58:37.160Z,17.50
2019-02-18T18:01:04.309Z,17.70
2019-02-18T18:03:31.050Z,17.60
2019-02-18T18:05:57.807Z,17.50
2019-02-18T18:08:24.640Z,17.60
2019-02-18T18:10:51.479Z,17.90
2019-02-18T18:13:24.922Z,18.00
2019-02-18T18:15:46.804Z,17.80
2019-02-18T18:18:13.652Z,18.20
2019-02-18T18:20:40.588Z,18.20
2019-02-18T18:23:07.439Z,18.30
2019-02-18T18:25:34.272Z,18.40
2019-02-18T18:28:01.034Z,18.10
2019-02-18T18:30:27.855Z,18.50
2019-02-18T18:32:54.684Z,18.30
2019-02-18T18:35:21.446Z,18.60
2019-02-18T18:37:48.479Z,18.70
2019-02-18T18:40:15.317Z,18.70
2019-02-18T18:42:42.059Z,18.60
2019-02-18T18:45:09.885Z,18.80
2019-02-18T18:47:36.673Z,18.80
2019-02-18T18:50:03.686Z,19.10
2019-02-18T18:52:30.445Z,19.10
2019-02-18T18:54:57.929Z,19.30
2019-02-18T18:57:25.226Z,19.10
2019-02-18T18:59:51.918Z,19.30
2019-02-18T19:02:18.646Z,19.50
2019-02-18T19:04:45.358Z,19.70
2019-02-18T19:07:12.138Z,19.60
2019-02-18T19:09:38.970Z,19.60
2019-02-18T19:12:05.707Z,19.60
2019-02-18T19:14:32.562Z,20.00
2019-02-18T19:16:59.402Z,19.50
2019-02-18T19:22:12.188Z,19.80
2019-02-18T19:24:39.063Z,19.90
2019-02-18T19:27:05.985Z,20.00
2019-02-18T19:29:32.729Z,20.20
2019-02-18T19:31:59.423Z,20.00
2019-02-18T19:34:26.227Z,20.20
2019-02-18T19:36:52.941Z,20.20
2019-02-18T19:39:19.720Z,20.10
2019-02-18T19:41:46.667Z,20.20
2019-02-18T19:44:13.738Z,20.90
2019-02-18T19:46:40.513Z,20.40
2019-02-18T19:49:07.268Z,20.60
2019-02-18T19:51:33.981Z,20.40
2019-02-18T19:54:00.688Z,20.50
2019-02-18T19:56:27.545Z,20.50
2019-02-18T19:58:54.349Z,20.60
2019-02-18T20:01:21.379Z,20.60
2019-02-18T20:03:48.116Z,20.80
2019-02-18T20:06:14.875Z,20.60
2019-02-18T20:08:41.725Z,20.70
2019-02-18T20:11:08.578Z,20.90
2019-02-18T20:13:35.410Z,20.90
2019-02-18T20:16:02.256Z,21.00
2019-02-18T20:18:29.093Z,21.00
2019-02-18T20:20:55.942Z,21.10
2019-02-18T20:23:22.787Z,21.10
2019-02-18T20:25:50.322Z,20.90
2019-02-18T20:28:19.082Z,20.90
2019-02-18T20:30:46.333Z,21.20
2019-02-18T20:33:13.516Z,21.20
2019-02-18T20:35:43.143Z,21.20
2019-02-18T20:38:10.334Z,21.20
2019-02-18T20:40:39.673Z,21.20
2019-02-18T20:43:09.261Z,21.20
2019-02-18T20:45:38.109Z,21.30
2019-02-18T20:48:05.456Z,21.40
2019-02-18T20:50:34.654Z,21.30
2019-02-18T20:53:01.710Z,21.40
2019-02-18T20:55:29.655Z,21.60
2019-02-18T20:57:58.972Z,21.60
2019-02-18T21:00:27.412Z,21.60
2019-02-18T21:02:55.547Z,21.70
2019-02-18T21:05:24.121Z,21.70
2019-02-18T21:07:52.369Z,21.70
2019-02-18T21:10:20.962Z,21.70
2019-02-18T21:12:49.673Z,21.80
2019-02-18T21:15:17.608Z,21.70
2019-02-18T21:17:45.657Z,21.70
2019-02-18T21:20:14.546Z,21.80
2019-02-18T21:22:41.504Z,21.80
2019-02-18T21:25:11.340Z,21.70
2019-02-18T21:27:38.470Z,21.90
2019-02-18T21:30:06.132Z,21.90
2019-02-18T21:32:34.410Z,21.90
2019-02-18T21:35:03.344Z,22.10
2019-02-18T21:37:31.066Z,22.00
2019-02-18T21:39:59.263Z,22.10
2019-02-18T21:42:27.824Z,22.10
2019-02-18T21:44:55.438Z,22.10
2019-02-18T21:47:23.582Z,22.20
2019-02-18T21:49:52.643Z,22.00
2019-02-18T21:52:21.207Z,22.20
2019-02-18T21:54:49.985Z,22.60
2019-02-18T21:57:18.389Z,22.20
2019-02-18T21:59:47.421Z,22.40
2019-02-18T22:02:16.064Z,22.40
2019-02-18T22:04:44.653Z,22.30
2019-02-18T22:07:11.718Z,22.30
2019-02-18T22:09:38.456Z,22.30
2019-02-18T22:12:05.249Z,22.40
2019-02-18T22:14:33.804Z,22.40
2019-02-18T22:17:00.450Z,22.30
2019-02-18T22:19:27.190Z,22.30
2019-02-18T22:21:53.935Z,22.40
2019-02-18T22:24:20.787Z,22.40
2019-02-18T22:26:48.033Z,22.40
2019-02-18T22:29:14.718Z,22.50
2019-02-18T22:31:41.463Z,22.40
2019-02-18T22:34:08.360Z,22.50
2019-02-18T22:36:35.197Z,22.40
2019-02-18T22:39:02.041Z,22.40
2019-02-18T22:41:28.768Z,22.40
2019-02-18T22:43:55.512Z,22.50
2019-02-18T22:46:22.362Z,22.50
2019-02-18T22:48:49.406Z,22.70
2019-02-18T22:51:16.183Z,22.60
2019-02-18T22:53:42.993Z,22.70
2019-02-18T22:56:09.686Z,22.70
2019-02-18T22:58:36.402Z,22.70
2019-02-18T23:01:03.144Z,22.70
2019-02-18T23:03:29.908Z,22.70
2019-02-18T23:05:56.939Z,22.70
2019-02-18T23:08:23.668Z,22.70
2019-02-18T23:10:50.468Z,22.70
2019-02-18T23:13:17.394Z,22.70
2019-02-18T23:15:45.585Z,22.70
2019-02-18T23:18:12.413Z,22.80
2019-02-18T23:20:39.095Z,22.80
2019-02-18T23:23:05.813Z,22.90
2019-02-18T23:25:32.547Z,22.80
2019-02-18T23:27:59.375Z,22.90
2019-02-18T23:30:26.120Z,22.90
2019-02-18T23:32:53.028Z,22.80
2019-02-18T23:35:19.797Z,22.70
2019-02-18T23:37:46.646Z,22.60
2019-02-18T23:40:13.523Z,22.80
2019-02-18T23:42:40.433Z,22.80
2019-02-18T23:45:07.215Z,22.80
2019-02-18T23:47:34.042Z,22.70
2019-02-18T23:50:00.853Z,22.80
2019-02-18T23:52:27.708Z,22.80
2019-02-18T23:54:54.643Z,22.90
2019-02-18T23:57:21.334Z,22.90
2019-02-18T23:59:49.530Z,22.90
